createdAt,value
2019-03-21T00:00:57.020Z,101846.34
2019-03-21T00:01:59.811Z,101847.69
2019-03-21T00:03:02.620Z,101819.7
2019-03-21T00:04:05.390Z,101846.43
2019-03-21T00:05:08.166Z,101847.83
2019-03-21T00:06:10.934Z,101853.72
2019-03-21T00:07:13.704Z,101856.64
2019-03-21T00:08:16.460Z,101859.09
2019-03-21T00:09:19.266Z,101854.97
2019-03-21T00:10:22.048Z,101855.33
2019-03-21T00:11:24.822Z,101846.84
2019-03-21T00:12:27.589Z,101846.13
2019-03-21T00:13:30.341Z,101840.82
2019-03-21T00:14:33.147Z,101841.81
2019-03-21T00:15:35.919Z,101843.02
2019-03-21T00:16:38.697Z,101846.87
2019-03-21T00:17:41.458Z,101846.4
2019-03-21T00:18:44.223Z,101852.8
2019-03-21T00:19:47.036Z,101848.39
2019-03-21T00:20:49.798Z,101852.56
2019-03-21T00:21:52.564Z,101849.69
2019-03-21T00:22:55.392Z,101849.63
2019-03-21T00:23:58.177Z,101841.5
2019-03-21T00:25:01.040Z,101844.47
2019-03-21T00:26:03.805Z,101844.63
2019-03-21T00:27:06.589Z,101846.95
2019-03-21T00:28:09.353Z,101844.89
2019-03-21T00:29:12.121Z,101851.86
2019-03-21T00:30:14.929Z,101848.77
2019-03-21T00:31:17.676Z,101847.94
2019-03-21T00:32:20.452Z,101847.12
2019-03-21T00:33:23.211Z,101839.23
2019-03-21T00:34:25.974Z,101836.77
2019-03-21T00:35:28.753Z,101830.11
2019-03-21T00:36:31.591Z,101832.96
2019-03-21T00:37:34.350Z,101826.02
2019-03-21T00:38:37.118Z,101825.55
2019-03-21T00:39:39.931Z,101825.22
2019-03-21T00:40:45.112Z,101826.17
2019-03-21T00:41:47.897Z,101825.86
2019-03-21T00:42:50.669Z,101822.23
2019-03-21T00:43:53.427Z,101827.16
2019-03-21T00:44:56.219Z,101822.07
2019-03-21T00:45:59.029Z,101754.7
2019-03-21T00:47:01.851Z,101818.3
2019-03-21T00:48:04.605Z,101811.56
2019-03-21T00:49:07.382Z,101814.21
2019-03-21T00:50:10.150Z,101808.44
2019-03-21T00:51:12.919Z,101812
2019-03-21T00:52:15.701Z,101806.34
2019-03-21T00:53:18.459Z,101812.8
2019-03-21T00:54:21.228Z,101799.55
2019-03-21T00:55:24.006Z,101806.91
2019-03-21T00:56:26.767Z,101804.84
2019-03-21T00:57:29.576Z,101800.39
2019-03-21T00:58:32.344Z,101805.65
2019-03-21T00:59:35.110Z,101806.61
2019-03-21T01:00:37.870Z,101804.68
2019-03-21T01:01:40.651Z,101801.23
2019-03-21T01:02:43.473Z,101796.3
2019-03-21T01:03:46.241Z,101794.3
2019-03-21T01:04:49.019Z,101788.09
2019-03-21T01:05:51.776Z,101784.7
2019-03-21T01:06:54.539Z,101780.89
2019-03-21T01:07:57.349Z,101786.05
2019-03-21T01:09:00.133Z,101788.47
2019-03-21T01:10:02.892Z,101780.19
2019-03-21T01:11:05.663Z,101785.51
2019-03-21T01:12:08.441Z,101788.55
2019-03-21T01:13:11.235Z,101785.27
2019-03-21T01:14:14.046Z,101781.5
2019-03-21T01:15:16.826Z,101783.19
2019-03-21T01:16:19.608Z,101760.2
2019-03-21T01:17:22.384Z,101781
2019-03-21T01:18:25.159Z,101783.55
2019-03-21T01:19:27.965Z,101778.73
2019-03-21T01:20:30.727Z,101780.73
2019-03-21T01:21:33.498Z,101783.63
2019-03-21T01:22:36.279Z,101784.45
2019-03-21T01:23:39.045Z,101785.45
2019-03-21T01:24:41.903Z,101783.8
2019-03-21T01:25:44.678Z,101786.15
2019-03-21T01:26:47.439Z,101775.92
2019-03-21T01:27:50.201Z,101785.48
2019-03-21T01:28:52.963Z,101782.77
2019-03-21T01:29:55.782Z,101784.18
2019-03-21T01:30:58.584Z,101782.27
2019-03-21T01:32:01.353Z,101782.83
2019-03-21T01:33:04.120Z,101783.81
2019-03-21T01:34:06.894Z,101782.83
2019-03-21T01:35:09.698Z,101782.77
2019-03-21T01:36:12.495Z,101783.17
2019-03-21T01:37:15.311Z,101785.76
2019-03-21T01:38:18.081Z,101782.19
2019-03-21T01:39:20.859Z,101783.27
2019-03-21T01:40:23.725Z,101788.09
2019-03-21T01:41:26.484Z,101796.02
2019-03-21T01:42:29.247Z,101795.36
2019-03-21T01:43:32.029Z,101793.28
2019-03-21T01:44:41.986Z,101786.52
2019-03-21T01:45:44.780Z,101782.07
2019-03-21T01:46:47.559Z,101786.4
2019-03-21T01:47:50.331Z,101785.17
2019-03-21T01:48:53.104Z,101789.05
2019-03-21T01:49:55.871Z,101787.53
2019-03-21T01:50:58.694Z,101787.88
2019-03-21T01:52:01.463Z,101774.09
2019-03-21T01:53:04.229Z,101786.89
2019-03-21T01:54:06.991Z,101788.85
2019-03-21T01:55:11.345Z,101783.86
2019-03-21T01:56:14.280Z,101776.3
2019-03-21T01:57:17.048Z,101778.38
2019-03-21T01:58:19.810Z,101772.83
2019-03-21T01:59:22.566Z,101772.49
2019-03-21T02:00:25.424Z,101768.92
2019-03-21T02:01:28.200Z,101765.04
2019-03-21T02:02:30.955Z,101770.97
2019-03-21T02:03:33.731Z,101763.76
2019-03-21T02:04:36.496Z,101761.03
2019-03-21T02:05:39.275Z,101763.05
2019-03-21T02:06:42.077Z,101766.69
2019-03-21T02:07:44.839Z,101748.91
2019-03-21T02:08:47.647Z,101765.66
2019-03-21T02:09:50.403Z,101720.21
2019-03-21T02:10:53.168Z,101765.84
2019-03-21T02:11:55.994Z,101763.76
2019-03-21T02:12:58.808Z,101730.47
2019-03-21T02:14:01.582Z,101751.87
2019-03-21T02:15:04.360Z,101754.67
2019-03-21T02:16:07.130Z,101749.81
2019-03-21T02:17:09.949Z,101751.47
2019-03-21T02:18:12.728Z,101746.66
2019-03-21T02:19:15.492Z,101753.58
2019-03-21T02:20:18.256Z,101746.38
2019-03-21T02:21:21.034Z,101744.54
2019-03-21T02:22:23.844Z,101743.07
2019-03-21T02:23:26.626Z,101739.52
2019-03-21T02:24:29.393Z,101739.22
2019-03-21T02:25:32.180Z,101736.05
2019-03-21T02:26:34.950Z,101741.38
2019-03-21T02:27:37.764Z,101740.33
2019-03-21T02:28:40.539Z,101744.06
2019-03-21T02:29:43.312Z,101744.83
2019-03-21T02:30:46.111Z,101748.03
2019-03-21T02:31:48.881Z,101747.63
2019-03-21T02:32:51.687Z,101741.36
2019-03-21T02:33:54.479Z,101746.92
2019-03-21T02:34:57.317Z,101746.05
2019-03-21T02:36:00.108Z,101748.56
2019-03-21T02:37:02.903Z,101753.24
2019-03-21T02:38:05.715Z,101753.68
2019-03-21T02:39:08.497Z,101757.44
2019-03-21T02:40:11.292Z,101755.95
2019-03-21T02:41:14.095Z,101765.63
2019-03-21T02:42:16.864Z,101764.25
2019-03-21T02:43:19.695Z,101761.5
2019-03-21T02:44:22.478Z,101760.13
2019-03-21T02:45:25.256Z,101756.24
2019-03-21T02:46:28.040Z,101757.79
2019-03-21T02:47:30.829Z,101753.69
2019-03-21T02:48:33.639Z,101717.75
2019-03-21T02:49:36.426Z,101760.52
2019-03-21T02:50:39.205Z,101757.94
2019-03-21T02:51:41.985Z,101762.08
2019-03-21T02:52:44.781Z,101767.38
2019-03-21T02:53:47.626Z,101765.57
2019-03-21T02:54:50.435Z,101767.75
2019-03-21T02:55:53.241Z,101766.52
2019-03-21T02:56:56.057Z,101764.05
2019-03-21T02:57:58.861Z,101763.61
2019-03-21T02:59:01.630Z,101767.03
2019-03-21T03:00:04.438Z,101764.59
2019-03-21T03:01:07.222Z,101768.78
2019-03-21T03:02:09.993Z,101769.3
2019-03-21T03:03:12.789Z,101772.84
2019-03-21T03:04:15.622Z,101755.01
2019-03-21T03:05:18.404Z,101769.81
2019-03-21T03:06:21.205Z,101769.84
2019-03-21T03:07:24.002Z,101773.97
2019-03-21T03:08:26.793Z,101777.41
2019-03-21T03:09:29.600Z,101780.16
2019-03-21T03:10:32.397Z,101777.31
2019-03-21T03:11:35.185Z,101781.51
2019-03-21T03:12:37.965Z,101785.16
2019-03-21T03:13:40.747Z,101788.32
2019-03-21T03:14:43.530Z,101772.1
2019-03-21T03:15:46.293Z,101785.09
2019-03-21T03:16:49.062Z,101789.57
2019-03-21T03:17:51.841Z,101791.39
2019-03-21T03:18:54.622Z,101792.03
2019-03-21T03:19:57.450Z,101790.14
2019-03-21T03:21:00.259Z,101795.89
2019-03-21T03:22:03.038Z,101797.34
2019-03-21T03:23:05.825Z,101794.02
2019-03-21T03:24:08.585Z,101788.89
2019-03-21T03:25:11.372Z,101794.22
2019-03-21T03:26:14.161Z,101792.89
2019-03-21T03:27:16.949Z,101787.69
2019-03-21T03:28:19.744Z,101783.97
2019-03-21T03:29:22.527Z,101786.23
2019-03-21T03:30:25.419Z,101791.83
2019-03-21T03:31:28.192Z,101787.56
2019-03-21T03:32:30.988Z,101796.27
2019-03-21T03:33:33.825Z,101795.44
2019-03-21T03:34:36.619Z,101792.39
2019-03-21T03:35:39.427Z,101757.49
2019-03-21T03:36:42.222Z,101798.44
2019-03-21T03:37:45.002Z,101797.92
2019-03-21T03:38:47.783Z,101799.75
2019-03-21T03:39:50.564Z,101802.51
2019-03-21T03:40:53.358Z,101805.48
2019-03-21T03:41:56.135Z,101803.63
2019-03-21T03:42:58.938Z,101805.63
2019-03-21T03:44:01.708Z,101771.84
2019-03-21T03:45:04.496Z,101808.58
2019-03-21T03:46:07.301Z,101812.68
2019-03-21T03:47:10.064Z,101814.45
2019-03-21T03:48:12.848Z,101815.23
2019-03-21T03:49:15.624Z,101814.09
2019-03-21T03:50:18.446Z,101815.81
2019-03-21T03:51:21.300Z,101820.08
2019-03-21T03:52:24.085Z,101816.66
2019-03-21T03:53:26.842Z,101817.95
2019-03-21T03:54:29.627Z,101819.16
2019-03-21T03:55:32.423Z,101815.83
2019-03-21T03:56:35.230Z,101820.8
2019-03-21T03:57:38.020Z,101807.05
2019-03-21T03:58:40.815Z,101823.02
2019-03-21T03:59:43.615Z,101820.09
2019-03-21T04:00:46.415Z,101821.44
2019-03-21T04:01:49.214Z,101813.27
2019-03-21T04:02:51.976Z,101815.56
2019-03-21T04:03:54.773Z,101814.83
2019-03-21T04:04:57.548Z,101811.94
2019-03-21T04:06:00.329Z,101809.94
2019-03-21T04:07:03.140Z,101810.27
2019-03-21T04:08:05.922Z,101810.44
2019-03-21T04:09:08.695Z,101810.95
2019-03-21T04:10:11.459Z,101814.77
2019-03-21T04:11:14.254Z,101818.16
2019-03-21T04:12:17.067Z,101814.77
2019-03-21T04:13:19.902Z,101815.31
2019-03-21T04:14:22.685Z,101815.75
2019-03-21T04:15:25.471Z,101815.19
2019-03-21T04:16:28.257Z,101820.06
2019-03-21T04:17:31.074Z,101821.31
2019-03-21T04:18:33.842Z,101823.47
2019-03-21T04:19:36.619Z,101821.27
2019-03-21T04:20:39.381Z,101823.77
2019-03-21T04:21:42.157Z,101822.88
2019-03-21T04:22:44.967Z,101825.67
2019-03-21T04:23:47.763Z,101823.13
2019-03-21T04:24:50.533Z,101827.48
2019-03-21T04:25:53.319Z,101829.75
2019-03-21T04:26:56.108Z,101822.03
2019-03-21T04:27:58.925Z,101830.23
2019-03-21T04:29:01.764Z,101829.48
2019-03-21T04:30:04.538Z,101829.5
2019-03-21T04:31:07.324Z,101816.44
2019-03-21T04:32:10.098Z,101822.89
2019-03-21T04:33:12.909Z,101827.03
2019-03-21T04:34:15.692Z,101824.29
2019-03-21T04:35:18.480Z,101825.45
2019-03-21T04:36:21.244Z,101792.77
2019-03-21T04:37:24.017Z,101821.48
2019-03-21T04:38:26.811Z,101826.26
2019-03-21T04:39:29.573Z,101826.72
2019-03-21T04:40:32.357Z,101822.7
2019-03-21T04:41:35.143Z,101823.7
2019-03-21T04:42:37.909Z,101823.91
2019-03-21T04:43:40.703Z,101826.91
2019-03-21T04:44:45.446Z,101823.55
2019-03-21T04:45:48.219Z,101828.63
2019-03-21T04:46:51.027Z,101824.31
2019-03-21T04:47:53.783Z,101829.5
2019-03-21T04:48:56.578Z,101827.88
2019-03-21T04:49:59.362Z,101831.39
2019-03-21T04:51:02.207Z,101834.34
2019-03-21T04:52:04.995Z,101838.34
2019-03-21T04:53:07.767Z,101837.83
2019-03-21T04:54:10.572Z,101837.73
2019-03-21T04:55:13.349Z,101836.91
2019-03-21T04:56:16.139Z,101839.77
2019-03-21T04:57:18.901Z,101838.4
2019-03-21T04:58:21.684Z,101834.52
2019-03-21T04:59:24.539Z,101841.36
2019-03-21T05:00:27.321Z,101835.62
2019-03-21T05:01:30.098Z,101835.62
2019-03-21T05:02:32.867Z,101832.79
2019-03-21T05:03:35.660Z,101825.52
2019-03-21T05:04:38.459Z,101829.55
2019-03-21T05:05:41.221Z,101829.22
2019-03-21T05:06:43.985Z,101823.91
2019-03-21T05:07:46.772Z,101829.86
2019-03-21T05:08:49.542Z,101826.86
2019-03-21T05:09:52.315Z,101828.7
2019-03-21T05:10:55.072Z,101829.91
2019-03-21T05:11:57.874Z,101830.63
2019-03-21T05:13:00.643Z,101826.77
2019-03-21T05:14:03.473Z,101828.21
2019-03-21T05:15:06.247Z,101830.16
2019-03-21T05:16:15.793Z,101829.97
2019-03-21T05:17:18.608Z,101829.86
2019-03-21T05:18:21.376Z,101837.55
2019-03-21T05:19:24.154Z,101835.16
2019-03-21T05:20:26.920Z,101835.77
2019-03-21T05:21:29.681Z,101833.86
2019-03-21T05:22:32.467Z,101834.5
2019-03-21T05:23:35.235Z,101838.84
2019-03-21T05:24:37.998Z,101836.03
2019-03-21T05:25:40.759Z,101838.31
2019-03-21T05:26:43.537Z,101842.36
2019-03-21T05:27:46.377Z,101842.7
2019-03-21T05:28:49.155Z,101844
2019-03-21T05:29:51.932Z,101844.78
2019-03-21T05:30:54.704Z,101844.67
2019-03-21T05:31:57.497Z,101840.95
2019-03-21T05:33:00.298Z,101842.32
2019-03-21T05:34:03.064Z,101836.56
2019-03-21T05:35:05.826Z,101836.73
2019-03-21T05:36:08.583Z,101836.43
2019-03-21T05:37:11.349Z,101838.89
2019-03-21T05:38:14.158Z,101835.75
2019-03-21T05:39:16.928Z,101838.29
2019-03-21T05:40:19.692Z,101842.19
2019-03-21T05:41:22.464Z,101840.27
2019-03-21T05:42:25.242Z,101837.8
2019-03-21T05:43:28.017Z,101839.47
2019-03-21T05:44:31.909Z,101843.73
2019-03-21T05:45:34.671Z,101845.23
2019-03-21T05:46:37.437Z,101842.46
2019-03-21T05:47:40.210Z,101842.87
2019-03-21T05:48:43.029Z,101845.44
2019-03-21T05:49:45.774Z,101843.58
2019-03-21T05:50:48.546Z,101845
2019-03-21T05:51:51.319Z,101843.55
2019-03-21T05:52:54.117Z,101844.04
2019-03-21T05:53:56.895Z,101842.91
2019-03-21T05:54:59.705Z,101842.8
2019-03-21T05:56:02.510Z,101849.18
2019-03-21T05:57:05.260Z,101843.75
2019-03-21T05:58:08.040Z,101843.8
2019-03-21T05:59:10.857Z,101845.27
2019-03-21T06:00:13.635Z,101844.16
2019-03-21T06:01:16.422Z,101843.72
2019-03-21T06:02:19.191Z,101841.61
2019-03-21T06:03:21.953Z,101839.72
2019-03-21T06:04:24.774Z,101842.72
2019-03-21T06:05:27.544Z,101841.65
2019-03-21T06:06:30.314Z,101842.73
2019-03-21T06:07:33.084Z,101848.22
2019-03-21T06:08:35.854Z,101851.59
2019-03-21T06:09:38.673Z,101845.3
2019-03-21T06:10:41.472Z,101850.87
2019-03-21T06:11:44.252Z,101852.41
2019-03-21T06:12:47.031Z,101858.83
2019-03-21T06:13:49.843Z,101857.14
2019-03-21T06:14:52.658Z,101860.55
2019-03-21T06:15:55.434Z,101863.5
2019-03-21T06:16:58.204Z,101862.39
2019-03-21T06:18:00.997Z,101865.06
2019-03-21T06:19:03.763Z,101866.61
2019-03-21T06:20:06.593Z,101866.19
2019-03-21T06:21:09.353Z,101869.92
2019-03-21T06:22:12.139Z,101868.24
2019-03-21T06:23:14.903Z,101869.03
2019-03-21T06:24:17.680Z,101866.05
2019-03-21T06:25:20.504Z,101868.66
2019-03-21T06:26:23.291Z,101866.41
2019-03-21T06:27:26.090Z,101865.49
2019-03-21T06:28:28.868Z,101866.63
2019-03-21T06:29:31.637Z,101869.85
2019-03-21T06:30:34.473Z,101870.2
2019-03-21T06:31:37.235Z,101874.58
2019-03-21T06:32:40.038Z,101874.3
2019-03-21T06:33:42.810Z,101875.78
2019-03-21T06:34:45.583Z,101878.63
2019-03-21T06:35:48.400Z,101883.3
2019-03-21T06:36:51.187Z,101879.98
2019-03-21T06:37:53.951Z,101879.34
2019-03-21T06:38:56.756Z,101884.47
2019-03-21T06:39:59.555Z,101883.69
2019-03-21T06:41:02.379Z,101874.71
2019-03-21T06:42:05.152Z,101879.43
2019-03-21T06:43:07.927Z,101882.08
2019-03-21T06:44:10.708Z,101880.73
2019-03-21T06:45:13.497Z,101883.26
2019-03-21T06:46:16.316Z,101879.38
2019-03-21T06:47:19.093Z,101879.53
2019-03-21T06:48:21.860Z,101886.56
2019-03-21T06:49:24.628Z,101886.12
2019-03-21T06:50:27.412Z,101889.19
2019-03-21T06:51:30.229Z,101886.5
2019-03-21T06:52:33.019Z,101888.62
2019-03-21T06:53:35.814Z,101884.83
2019-03-21T06:54:38.592Z,101886.97
2019-03-21T06:55:41.354Z,101887.87
2019-03-21T06:56:44.170Z,101887.28
2019-03-21T06:57:46.955Z,101888.8
2019-03-21T06:58:49.736Z,101891.64
2019-03-21T06:59:52.543Z,101893.75
2019-03-21T07:00:55.329Z,101889.9
2019-03-21T07:01:58.145Z,101887.39
2019-03-21T07:03:00.918Z,101893.31
2019-03-21T07:04:08.242Z,101888.53
2019-03-21T07:05:11.015Z,101893.09
2019-03-21T07:06:13.881Z,101889.73
2019-03-21T07:07:16.665Z,101885.3
2019-03-21T07:08:19.427Z,101891.42
2019-03-21T07:09:22.197Z,101889.62
2019-03-21T07:10:24.973Z,101891.88
2019-03-21T07:11:27.755Z,101898.8
2019-03-21T07:12:30.571Z,101866.98
2019-03-21T07:13:33.349Z,101895.48
2019-03-21T07:14:36.154Z,101865.48
2019-03-21T07:15:38.955Z,101895.6
2019-03-21T07:16:41.898Z,101889.59
2019-03-21T07:17:44.704Z,101894.09
2019-03-21T07:18:47.530Z,101894.3
2019-03-21T07:19:50.324Z,101897.69
2019-03-21T07:20:53.119Z,101897.26
2019-03-21T07:21:55.918Z,101899.47
2019-03-21T07:22:58.766Z,101828.01
2019-03-21T07:24:01.543Z,101897.42
2019-03-21T07:25:04.384Z,101899.3
2019-03-21T07:26:07.837Z,101901.46
2019-03-21T07:27:10.638Z,101903.73
2019-03-21T07:28:13.443Z,101904.95
2019-03-21T07:29:16.243Z,101903.09
2019-03-21T07:30:19.034Z,101904.45
2019-03-21T07:31:21.827Z,101907.45
2019-03-21T07:32:34.190Z,101905.23
2019-03-21T07:33:37.015Z,101903.92
2019-03-21T07:34:39.792Z,101904.55
2019-03-21T07:35:42.593Z,101885.05
2019-03-21T07:36:45.381Z,101906
2019-03-21T07:37:48.155Z,101902.63
2019-03-21T07:38:50.998Z,101908.55
2019-03-21T07:39:53.764Z,101904.2
2019-03-21T07:40:56.578Z,101905.05
2019-03-21T07:42:02.124Z,101892.27
2019-03-21T07:43:04.939Z,101904.92
2019-03-21T07:44:07.766Z,101908.02
2019-03-21T07:45:10.569Z,101907.63
2019-03-21T07:46:13.372Z,101908.95
2019-03-21T07:47:16.143Z,101909.69
2019-03-21T07:48:18.925Z,101906.54
2019-03-21T07:49:21.730Z,101910.53
2019-03-21T07:50:24.520Z,101909.85
2019-03-21T07:51:27.297Z,101906.17
2019-03-21T07:52:30.053Z,101876.01
2019-03-21T07:53:32.838Z,101912.27
2019-03-21T07:54:35.662Z,101911.16
2019-03-21T07:55:38.425Z,101909.78
2019-03-21T07:56:41.197Z,101912.49
2019-03-21T07:57:43.969Z,101918.27
2019-03-21T07:58:46.748Z,101919.98
2019-03-21T07:59:49.568Z,101916.95
2019-03-21T08:00:52.354Z,101914.31
2019-03-21T08:01:55.129Z,101916.75
2019-03-21T08:02:57.940Z,101919.36
2019-03-21T08:04:02.817Z,101919.48
2019-03-21T08:05:05.998Z,101889.88
2019-03-21T08:06:08.775Z,101918.37
2019-03-21T08:07:11.526Z,101908.86
2019-03-21T08:08:14.289Z,101924.83
2019-03-21T08:09:17.066Z,101921.73
2019-03-21T08:10:19.879Z,101925.75
2019-03-21T08:11:22.658Z,101923.69
2019-03-21T08:12:25.416Z,101920.05
2019-03-21T08:13:28.204Z,101919.36
2019-03-21T08:14:30.968Z,101919.69
2019-03-21T08:15:33.776Z,101917.49
2019-03-21T08:16:36.531Z,101918.47
2019-03-21T08:17:39.304Z,101913.72
2019-03-21T08:18:42.104Z,101915.83
2019-03-21T08:19:44.882Z,101916.87
2019-03-21T08:20:59.853Z,101918
2019-03-21T08:22:02.793Z,101909.98
2019-03-21T08:23:05.590Z,101915.72
2019-03-21T08:24:08.367Z,101917.17
2019-03-21T08:25:11.143Z,101916.41
2019-03-21T08:26:13.955Z,101917.36
2019-03-21T08:27:16.732Z,101923.22
2019-03-21T08:28:19.501Z,101920.72
2019-03-21T08:29:22.279Z,101920.75
2019-03-21T08:30:25.046Z,101915.17
2019-03-21T08:31:27.866Z,101914.05
2019-03-21T08:32:30.640Z,101918.19
2019-03-21T08:33:33.424Z,101914.66
2019-03-21T08:34:36.196Z,101916.24
2019-03-21T08:35:38.966Z,101914.97
2019-03-21T08:36:41.736Z,101917.45
2019-03-21T08:37:44.513Z,101912.66
2019-03-21T08:38:47.284Z,101913.78
2019-03-21T08:39:50.075Z,101917.54
2019-03-21T08:40:52.837Z,101914.89
2019-03-21T08:41:55.656Z,101914.3
2019-03-21T08:42:58.435Z,101917.6
2019-03-21T08:44:01.217Z,101919.43
2019-03-21T08:45:04.022Z,101916.83
2019-03-21T08:46:06.784Z,101918.19
2019-03-21T08:47:09.583Z,101910.7
2019-03-21T08:48:12.356Z,101918.71
2019-03-21T08:49:15.113Z,101918.15
2019-03-21T08:50:17.887Z,101919.67
2019-03-21T08:51:20.666Z,101922.66
2019-03-21T08:52:23.499Z,101918.92
2019-03-21T08:53:26.270Z,101917.3
2019-03-21T08:54:29.043Z,101916.42
2019-03-21T08:55:31.826Z,101918.67
2019-03-21T08:56:34.595Z,101892.84
2019-03-21T08:57:37.404Z,101919.26
2019-03-21T08:58:40.167Z,101913.39
2019-03-21T08:59:42.942Z,101914.13
2019-03-21T09:00:45.717Z,101908.47
2019-03-21T09:01:48.487Z,101912.67
2019-03-21T09:02:51.306Z,101913.2
2019-03-21T09:03:54.091Z,101919.94
2019-03-21T09:04:56.865Z,101915.13
2019-03-21T09:05:59.678Z,101917.02
2019-03-21T09:07:02.437Z,101918.48
2019-03-21T09:08:05.251Z,101915.56
2019-03-21T09:09:08.019Z,101917.23
2019-03-21T09:10:10.825Z,101916.26
2019-03-21T09:11:13.596Z,101924.02
2019-03-21T09:12:16.490Z,101925.81
2019-03-21T09:13:19.291Z,101929.23
2019-03-21T09:14:22.108Z,101931.5
2019-03-21T09:15:25.052Z,101932.95
2019-03-21T09:16:27.850Z,101913.33
2019-03-21T09:17:31.113Z,101935.8
2019-03-21T09:18:33.914Z,101935.7
2019-03-21T09:19:36.705Z,101940.7
2019-03-21T09:20:39.476Z,101937.34
2019-03-21T09:21:42.253Z,101939.33
2019-03-21T09:22:45.013Z,101944.48
2019-03-21T09:23:47.807Z,101942.17
2019-03-21T09:24:50.561Z,101943.44
2019-03-21T09:25:53.351Z,101934.63
2019-03-21T09:26:56.143Z,101919.25
2019-03-21T09:28:03.769Z,101938.04
2019-03-21T09:29:06.638Z,101940.28
2019-03-21T09:30:09.428Z,101933.4
2019-03-21T09:31:12.182Z,101933.22
2019-03-21T09:32:15.114Z,101939.91
2019-03-21T09:33:17.920Z,101940.12
2019-03-21T09:34:20.761Z,101942.39
2019-03-21T09:35:23.549Z,101944.7
2019-03-21T09:36:26.325Z,101942.58
2019-03-21T09:37:29.161Z,101918.37
2019-03-21T09:38:31.927Z,101941.39
2019-03-21T09:39:34.732Z,101944.23
2019-03-21T09:40:37.498Z,101940.84
2019-03-21T09:41:40.262Z,101938.77
2019-03-21T09:42:43.034Z,101938.47
2019-03-21T09:43:45.806Z,101939.25
2019-03-21T09:44:48.604Z,101943.41
2019-03-21T09:45:51.373Z,101948.72
2019-03-21T09:46:54.148Z,101944.77
2019-03-21T09:47:56.918Z,101935.67
2019-03-21T09:48:59.728Z,101938.92
2019-03-21T09:50:02.587Z,101941.77
2019-03-21T09:51:05.348Z,101946.73
2019-03-21T09:52:08.129Z,101945.55
2019-03-21T09:53:10.935Z,101950.14
2019-03-21T09:54:13.732Z,101949.59
2019-03-21T09:55:16.544Z,101951.19
2019-03-21T09:56:19.333Z,101943.63
2019-03-21T09:57:22.114Z,101942.94
2019-03-21T09:58:24.900Z,101942.44
2019-03-21T09:59:27.679Z,101941.15
2019-03-21T10:00:30.518Z,101941.72
2019-03-21T10:01:33.285Z,101942.51
2019-03-21T10:02:36.065Z,101943.56
2019-03-21T10:03:38.829Z,101944.3
2019-03-21T10:04:41.600Z,101945.36
2019-03-21T10:05:44.413Z,101944.48
2019-03-21T10:06:47.177Z,101943.05
2019-03-21T10:07:49.949Z,101946.44
2019-03-21T10:08:52.707Z,101943.77
2019-03-21T10:09:55.484Z,101940.33
2019-03-21T10:10:58.302Z,101949.06
2019-03-21T10:12:01.122Z,101944.55
2019-03-21T10:13:03.901Z,101935.66
2019-03-21T10:14:06.678Z,101943.55
2019-03-21T10:15:09.430Z,101945.73
2019-03-21T10:16:12.286Z,101946.2
2019-03-21T10:17:15.068Z,101946.38
2019-03-21T10:18:17.834Z,101946.91
2019-03-21T10:19:20.595Z,101942.74
2019-03-21T10:20:23.376Z,101946.62
2019-03-21T10:21:26.194Z,101941.88
2019-03-21T10:22:29.039Z,101945.5
2019-03-21T10:23:31.811Z,101942.8
2019-03-21T10:24:34.585Z,101939.92
2019-03-21T10:25:37.353Z,101943.11
2019-03-21T10:26:40.184Z,101945.43
2019-03-21T10:27:42.959Z,101949.64
2019-03-21T10:28:45.723Z,101939.5
2019-03-21T10:29:48.498Z,101940
2019-03-21T10:30:51.249Z,101943.83
2019-03-21T10:31:54.128Z,101939.28
2019-03-21T10:32:56.903Z,101946.69
2019-03-21T10:33:59.691Z,101950.56
2019-03-21T10:35:02.470Z,101941.34
2019-03-21T10:36:05.240Z,101943.05
2019-03-21T10:37:08.037Z,101943.86
2019-03-21T10:38:10.809Z,101935.13
2019-03-21T10:39:13.575Z,101938.27
2019-03-21T10:40:16.340Z,101937.86
2019-03-21T10:41:19.108Z,101932.47
2019-03-21T10:42:21.910Z,101929.72
2019-03-21T10:43:24.683Z,101931.96
2019-03-21T10:44:27.469Z,101935.73
2019-03-21T10:45:30.241Z,101931.99
2019-03-21T10:46:33.018Z,101940.78
2019-03-21T10:47:35.828Z,101937.67
2019-03-21T10:48:38.591Z,101931.58
2019-03-21T10:49:41.348Z,101930.77
2019-03-21T10:50:44.147Z,101929.69
2019-03-21T10:51:55.987Z,101907.14
2019-03-21T10:52:58.826Z,101920.81
2019-03-21T10:54:01.606Z,101918.08
2019-03-21T10:55:04.384Z,101913.77
2019-03-21T10:56:07.149Z,101913.52
2019-03-21T10:57:09.920Z,101906.8
2019-03-21T10:58:12.732Z,101912.26
2019-03-21T10:59:15.566Z,101916.28
2019-03-21T11:00:18.393Z,101915.06
2019-03-21T11:01:21.170Z,101898.94
2019-03-21T11:02:23.975Z,101905.8
2019-03-21T11:03:26.795Z,101905
2019-03-21T11:04:29.587Z,101898.96
2019-03-21T11:05:32.353Z,101918.8
2019-03-21T11:06:35.148Z,101917.8
2019-03-21T11:07:37.902Z,101926.45
2019-03-21T11:08:40.701Z,101916.11
2019-03-21T11:09:43.474Z,101909.59
2019-03-21T11:10:48.310Z,101911.55
2019-03-21T11:11:51.073Z,101921.34
2019-03-21T11:12:53.870Z,101912.39
2019-03-21T11:13:56.667Z,101915.67
2019-03-21T11:14:59.509Z,101910.94
2019-03-21T11:16:02.297Z,101919.56
2019-03-21T11:17:05.080Z,101913.73
2019-03-21T11:18:07.851Z,101902.4
2019-03-21T11:19:10.704Z,101906.4
2019-03-21T11:20:13.538Z,101901.11
2019-03-21T11:21:16.309Z,101903.05
2019-03-21T11:22:19.091Z,101903.02
2019-03-21T11:23:21.856Z,101899.23
2019-03-21T11:24:24.668Z,101892.62
2019-03-21T11:25:27.426Z,101892.71
2019-03-21T11:26:30.211Z,101893.09
2019-03-21T11:27:32.986Z,101887.63
2019-03-21T11:28:35.784Z,101885.92
2019-03-21T11:29:38.641Z,101888.1
2019-03-21T11:30:41.445Z,101891.02
2019-03-21T11:31:44.250Z,101892.97
2019-03-21T11:32:47.018Z,101896.88
2019-03-21T11:33:49.795Z,101895.55
2019-03-21T11:34:52.669Z,101891.56
2019-03-21T11:35:55.433Z,101894.92
2019-03-21T11:36:58.211Z,101890.16
2019-03-21T11:38:00.998Z,101894.82
2019-03-21T11:39:03.770Z,101895.86
2019-03-21T11:40:06.581Z,101893.55
